createdAt,value
2023-03-26T00:02:02.032Z,75.78
2023-03-26T00:07:05.361Z,60.05
2023-03-26T00:12:07.947Z,70.68
2023-03-26T00:17:10.403Z,96.88
2023-03-26T00:22:13.851Z,85.32
2023-03-26T00:27:16.372Z,80.38
2023-03-26T00:32:18.953Z,68.65
2023-03-26T00:37:28.482Z,74.95
2023-03-26T00:42:32.190Z,75.30
2023-03-26T00:47:36.333Z,49.10
2023-03-26T00:52:39.383Z,57.03
2023-03-26T00:57:41.963Z,66.65
2023-03-26T01:02:45.393Z,72.40
2023-03-26T01:07:48.289Z,85.15
2023-03-26T01:12:50.754Z,88.97
2023-03-26T01:17:58.076Z,101.65
2023-03-26T01:23:05.571Z,111.65
2023-03-26T01:28:12.761Z,78.65
2023-03-26T01:33:34.371Z,81.55
2023-03-26T01:38:50.196Z,95.32
2023-03-26T01:44:06.887Z,102.82
2023-03-26T01:49:13.746Z,88.40
2023-03-26T01:54:23.285Z,99.70
2023-03-26T01:59:54.747Z,95.82
2023-03-26T02:05:26.385Z,88.90
2023-03-26T02:10:37.107Z,86.63
2023-03-26T02:15:41.316Z,90.13
2023-03-26T02:20:44.128Z,91.28
2023-03-26T02:25:47.867Z,83.10
2023-03-26T02:30:50.617Z,94.53
2023-03-26T02:35:53.906Z,86.15
2023-03-26T02:40:56.894Z,86.43
2023-03-26T02:46:10.505Z,87.53
2023-03-26T02:51:48.169Z,91.80
2023-03-26T02:57:01.615Z,92.80
2023-03-26T03:02:24.549Z,81.40
2023-03-26T03:07:32.771Z,84.82
2023-03-26T03:12:37.121Z,78.72
2023-03-26T03:17:40.790Z,84.60
2023-03-26T03:22:43.429Z,77.47
2023-03-26T03:27:46.129Z,87.00
2023-03-26T03:32:49.774Z,90.45
2023-03-26T03:38:00.299Z,94.82
2023-03-26T03:43:07.140Z,93.50
2023-03-26T03:48:19.307Z,85.25
2023-03-26T03:53:26.378Z,79.97
2023-03-26T03:58:31.521Z,63.65
2023-03-26T04:03:46.959Z,41.17
2023-03-26T04:08:53.024Z,46.80
2023-03-26T04:13:56.583Z,37.03
2023-03-26T04:19:17.894Z,36.55
2023-03-26T04:24:22.683Z,36.03
2023-03-26T04:29:50.049Z,35.88
2023-03-26T04:35:01.045Z,37.63
2023-03-26T04:40:10.500Z,30.20
2023-03-26T04:45:35.982Z,29.50
2023-03-26T04:50:38.644Z,20.23
2023-03-26T04:56:05.739Z,24.85
2023-03-26T05:01:28.626Z,28.98
2023-03-26T05:06:34.602Z,16.13
2023-03-26T05:11:43.901Z,16.25
2023-03-26T05:16:49.280Z,19.52
2023-03-26T05:21:52.305Z,16.35
2023-03-26T05:26:56.203Z,20.63
2023-03-26T05:32:00.145Z,19.63
2023-03-26T05:37:04.926Z,18.20
2023-03-26T05:42:21.754Z,18.77
2023-03-26T05:47:37.813Z,20.83
2023-03-26T05:52:40.891Z,22.55
2023-03-26T05:58:01.705Z,18.13
2023-03-26T06:03:24.832Z,18.35
2023-03-26T06:09:02.041Z,20.75
2023-03-26T06:14:07.198Z,22.42
2023-03-26T06:19:12.100Z,20.58
2023-03-26T06:24:43.677Z,20.98
2023-03-26T06:30:13.285Z,28.38
2023-03-26T06:35:38.905Z,18.33
2023-03-26T06:40:41.526Z,21.25
2023-03-26T06:45:57.924Z,16.45
2023-03-26T06:51:18.740Z,18.48
2023-03-26T06:56:53.990Z,14.40
2023-03-26T07:01:56.552Z,17.63
2023-03-26T07:07:18.442Z,18.48
2023-03-26T07:12:39.562Z,16.08
2023-03-26T07:18:11.104Z,15.70
2023-03-26T07:23:20.247Z,16.98
2023-03-26T07:29:07.723Z,17.13
2023-03-26T07:35:16.313Z,13.40
2023-03-26T07:41:11.388Z,14.45
2023-03-26T07:46:43.379Z,8.00
2023-03-26T07:51:56.185Z,11.48
2023-03-26T07:57:24.345Z,11.88
2023-03-26T08:02:49.140Z,19.02
2023-03-26T08:08:59.452Z,15.90
2023-03-26T08:14:25.968Z,11.57
2023-03-26T08:19:50.869Z,12.38
2023-03-26T08:25:05.662Z,12.45
2023-03-26T08:30:25.597Z,13.50
2023-03-26T08:35:28.690Z,17.65
2023-03-26T08:40:49.377Z,16.67
2023-03-26T08:46:16.546Z,13.07
2023-03-26T08:51:44.026Z,14.25
2023-03-26T08:56:59.782Z,8.90
2023-03-26T09:02:38.654Z,9.35
2023-03-26T09:08:02.738Z,9.68
2023-03-26T09:13:28.044Z,16.23
2023-03-26T09:18:51.954Z,12.88
2023-03-26T09:24:30.137Z,16.58
2023-03-26T09:29:57.517Z,14.75
2023-03-26T09:35:30.470Z,10.63
2023-03-26T09:41:05.075Z,11.82
2023-03-26T09:46:48.874Z,9.30
2023-03-26T09:51:57.728Z,12.48
2023-03-26T09:57:09.016Z,14.35
2023-03-26T10:02:49.869Z,13.70
2023-03-26T10:08:01.816Z,14.05
2023-03-26T10:13:31.523Z,9.38
2023-03-26T10:18:42.874Z,17.98
2023-03-26T10:23:51.529Z,9.55
2023-03-26T10:29:09.745Z,13.80
2023-03-26T10:34:57.048Z,10.93
2023-03-26T10:40:33.233Z,10.05
2023-03-26T10:45:38.591Z,16.55
2023-03-26T10:50:41.210Z,7.25
2023-03-26T10:55:47.112Z,9.90
2023-03-26T11:01:02.263Z,10.43
2023-03-26T11:06:47.364Z,14.13
2023-03-26T11:11:59.446Z,10.25
2023-03-26T11:17:39.510Z,11.60
2023-03-26T11:23:25.136Z,12.15
2023-03-26T11:29:03.660Z,14.73
2023-03-26T11:34:21.606Z,10.07
2023-03-26T11:39:33.929Z,11.02
2023-03-26T11:44:43.311Z,14.77
2023-03-26T11:49:48.372Z,9.43
2023-03-26T11:54:51.458Z,10.77
2023-03-26T12:00:17.112Z,12.52
2023-03-26T12:05:25.149Z,13.88
2023-03-26T12:10:38.466Z,8.07
2023-03-26T12:15:44.656Z,10.38
2023-03-26T12:20:48.385Z,9.18
2023-03-26T12:36:36.871Z,8.45
2023-03-26T12:44:44.554Z,5.63
2023-03-26T12:47:57.561Z,7.63
2023-03-26T12:52:55.933Z,7.88
2023-03-26T12:58:18.848Z,11.00
2023-03-26T13:03:45.468Z,8.55
2023-03-26T13:08:57.949Z,11.85
2023-03-26T13:14:39.533Z,8.15
2023-03-26T13:20:22.675Z,8.57
2023-03-26T13:25:43.464Z,9.23
2023-03-26T13:31:24.137Z,9.75
2023-03-26T13:36:46.904Z,13.50
2023-03-26T13:41:52.938Z,8.13
2023-03-26T13:47:04.143Z,15.00
2023-03-26T13:52:12.470Z,13.02
2023-03-26T13:57:25.213Z,15.20
2023-03-26T14:02:40.891Z,15.77
2023-03-26T14:08:01.837Z,19.10
2023-03-26T14:13:15.965Z,30.10
2023-03-26T14:18:46.158Z,36.30
2023-03-26T14:24:03.861Z,24.15
2023-03-26T14:29:29.083Z,21.10
2023-03-26T14:34:58.825Z,19.05
2023-03-26T14:40:17.306Z,14.45
2023-03-26T14:45:44.377Z,16.23
2023-03-26T14:50:47.008Z,17.60
2023-03-26T14:56:15.769Z,12.15
2023-03-26T15:01:47.516Z,18.08
2023-03-26T15:06:50.219Z,15.98
2023-03-26T15:12:18.624Z,17.52
2023-03-26T15:17:57.853Z,16.20
2023-03-26T15:23:28.755Z,12.50
2023-03-26T15:28:55.861Z,10.90
2023-03-26T15:34:01.270Z,15.90
2023-03-26T15:39:59.910Z,19.58
2023-03-26T15:45:56.581Z,23.65
2023-03-26T15:51:47.051Z,13.60
2023-03-26T15:57:22.902Z,20.98
2023-03-26T16:02:50.551Z,22.50
2023-03-26T16:08:07.936Z,16.73
2023-03-26T16:13:40.956Z,18.95
2023-03-26T16:18:45.593Z,10.90
2023-03-26T16:23:49.351Z,13.73
2023-03-26T16:28:55.251Z,18.13
2023-03-26T16:34:10.942Z,17.13
2023-03-26T16:39:49.562Z,5.60
2023-03-26T16:45:01.028Z,11.05
2023-03-26T16:50:18.998Z,10.82
2023-03-26T16:55:31.214Z,9.30
2023-03-26T17:00:39.692Z,13.40
2023-03-26T17:05:57.228Z,12.20
2023-03-26T17:11:23.653Z,9.02
2023-03-26T17:16:34.600Z,11.85
2023-03-26T17:21:56.111Z,10.13
2023-03-26T17:27:36.189Z,7.18
2023-03-26T17:33:03.767Z,12.20
2023-03-26T17:38:18.543Z,13.07
2023-03-26T17:43:57.699Z,7.65
2023-03-26T17:49:16.880Z,7.28
2023-03-26T17:54:34.021Z,7.45
2023-03-26T17:59:39.194Z,8.50
2023-03-26T18:04:45.956Z,6.72
2023-03-26T18:10:10.832Z,7.15
2023-03-26T18:15:58.916Z,5.53
2023-03-26T18:21:07.427Z,6.05
2023-03-26T18:26:23.245Z,7.97
2023-03-26T18:31:27.142Z,6.13
2023-03-26T18:36:31.729Z,6.57
2023-03-26T18:41:41.968Z,9.18
2023-03-26T18:46:46.117Z,8.30
2023-03-26T18:51:56.798Z,6.43
2023-03-26T18:57:15.056Z,8.23
2023-03-26T19:02:20.031Z,7.68
2023-03-26T19:07:26.743Z,13.05
2023-03-26T19:12:36.873Z,6.53
2023-03-26T19:17:46.118Z,5.00
2023-03-26T19:22:49.656Z,5.70
2023-03-26T19:27:52.780Z,8.60
2023-03-26T19:32:56.153Z,6.57
2023-03-26T19:38:44.855Z,10.85
2023-03-26T19:43:52.867Z,6.40
2023-03-26T19:48:59.247Z,8.43
2023-03-26T19:54:04.906Z,6.30
2023-03-26T19:59:07.894Z,9.63
2023-03-26T20:04:12.543Z,7.28
2023-03-26T20:09:16.532Z,7.60
2023-03-26T20:14:26.409Z,8.48
2023-03-26T20:19:29.872Z,6.72
2023-03-26T20:24:33.828Z,8.10
2023-03-26T20:29:36.974Z,8.25
2023-03-26T20:34:40.201Z,12.05
2023-03-26T20:39:43.097Z,7.30
2023-03-26T20:44:45.719Z,8.48
2023-03-26T20:49:48.206Z,10.07
2023-03-26T20:54:50.759Z,11.63
2023-03-26T20:59:55.893Z,6.88
2023-03-26T21:04:58.603Z,8.10
2023-03-26T21:10:02.234Z,7.15
2023-03-26T21:15:13.358Z,9.40
2023-03-26T21:20:20.109Z,7.65
2023-03-26T21:25:37.004Z,7.78
2023-03-26T21:30:40.130Z,7.57
2023-03-26T21:35:42.883Z,9.43
2023-03-26T21:40:52.923Z,7.22
2023-03-26T21:46:01.386Z,6.95
2023-03-26T21:51:05.688Z,9.90
2023-03-26T21:56:50.715Z,10.43
2023-03-26T22:02:00.700Z,7.53
2023-03-26T22:07:30.897Z,7.97
2023-03-26T22:12:33.458Z,6.53
2023-03-26T22:17:36.130Z,10.85
2023-03-26T22:22:49.240Z,8.52
2023-03-26T22:27:52.933Z,14.38
2023-03-26T22:32:55.914Z,4.55
2023-03-26T22:38:01.474Z,6.90
2023-03-26T22:43:04.842Z,13.80
2023-03-26T22:48:07.581Z,8.48
2023-03-26T22:53:10.210Z,11.68
2023-03-26T22:58:14.019Z,14.70
2023-03-26T23:03:16.560Z,9.70
2023-03-26T23:08:19.054Z,11.07
2023-03-26T23:13:22.360Z,11.13
2023-03-26T23:18:25.129Z,9.65
2023-03-26T23:23:30.177Z,12.23
2023-03-26T23:28:34.067Z,11.65
2023-03-26T23:33:38.755Z,14.18
2023-03-26T23:43:54.153Z,9.85
2023-03-26T23:49:00.220Z,11.38
2023-03-26T23:54:03.069Z,8.30
2023-03-26T23:59:06.352Z,9.80
